Time;durP1;ratioP1;P1;durP2;ratioP2;P2;SDS_P1;SDS_P2;PMS_P1;PMS_P2;Temp;Humidity;BMP_temperature;BMP_pressure;BME280_temperature;BME280_humidity;BME280_pressure;Samples;Min_cycle;Max_cycle;Signal;HPM_P1;HPM_P2
2022/06/21 00:01:16;;;;;;;0.82;0.35;;;11.80;99.30;;;;;;5054955;28;20043;-71
2022/06/21 00:03:43;;;;;;;0.75;0.35;;;11.70;99.30;;;;;;5068375;28;20045;-71
2022/06/21 00:06:13;;;;;;;0.73;0.40;;;11.70;99.40;;;;;;5052695;28;20031;-71
2022/06/21 00:08:39;;;;;;;0.68;0.40;;;11.70;99.50;;;;;;5064555;28;20039;-71
2022/06/21 00:11:31;;;;;;;0.77;0.40;;;11.60;99.40;;;;;;5060477;28;20048;-71
2022/06/21 00:13:57;;;;;;;3.15;0.47;;;11.60;99.90;;;;;;5042369;28;20036;-71
2022/06/21 00:16:26;;;;;;;1.48;0.43;;;11.60;99.60;;;;;;5063710;28;20396;-71
2022/06/21 00:18:52;;;;;;;1.35;0.45;;;11.60;99.60;;;;;;5060888;28;20059;-71
2022/06/21 00:21:28;;;;;;;0.32;0.30;;;11.60;99.30;;;;;;5046048;28;20100;-71
2022/06/21 00:23:55;;;;;;;1.10;0.50;;;11.60;99.50;;;;;;5065838;28;20058;-71
2022/06/21 00:26:23;;;;;;;0.98;0.40;;;11.50;99.00;;;;;;5049785;28;20052;-71
2022/06/21 00:28:49;;;;;;;1.13;0.47;;;11.50;99.10;;;;;;5063267;28;20071;-71
2022/06/21 00:31:21;;;;;;;0.47;0.25;;;11.40;99.20;;;;;;5059995;28;20032;-71
2022/06/21 00:33:47;;;;;;;0.20;0.20;;;11.40;99.40;;;;;;5060449;28;20123;-71
2022/06/21 00:36:33;;;;;;;0.93;0.43;;;11.30;99.50;;;;;;5050701;28;20028;-71
2022/06/21 00:39:00;;;;;;;1.38;0.68;;;11.30;99.90;;;;;;5067389;28;20055;-71
2022/06/21 00:41:42;;;;;;;1.13;0.68;;;11.30;99.80;;;;;;5066707;28;20130;-71
2022/06/21 00:44:14;;;;;;;0.40;0.30;;;11.30;99.90;;;;;;5058751;28;20097;-71
2022/06/21 00:46:51;;;;;;;0.20;0.15;;;11.20;99.80;;;;;;5046439;28;20050;-71
2022/06/21 00:49:27;;;;;;;0.30;0.30;;;11.30;99.80;;;;;;5058434;28;20506;-71
2022/06/21 00:51:59;;;;;;;1.98;0.20;;;11.30;99.90;;;;;;5036510;28;20087;-71
2022/06/21 00:54:35;;;;;;;2.05;0.40;;;11.30;99.50;;;;;;5063203;28;20043;-71
2022/06/21 00:57:09;;;;;;;0.40;0.30;;;11.30;99.50;;;;;;5066754;28;20037;-70
2022/06/21 00:59:38;;;;;;;1.65;0.40;;;11.30;99.20;;;;;;5061733;28;20075;-71
2022/06/21 01:02:14;;;;;;;0.68;0.47;;;11.20;99.20;;;;;;5051980;28;20143;-71
2022/06/21 01:04:45;;;;;;;1.02;0.43;;;11.20;99.10;;;;;;5057981;28;20541;-71
2022/06/21 01:07:12;;;;;;;0.60;0.35;;;11.20;99.30;;;;;;5069318;28;20036;-71
2022/06/21 01:09:56;;;;;;;0.10;0.10;;;11.20;99.20;;;;;;5062724;28;20071;-71
2022/06/21 01:12:34;;;;;;;0.73;0.30;;;11.10;99.30;;;;;;5068415;28;20490;-71
2022/06/21 01:15:06;;;;;;;0.75;0.32;;;11.20;99.40;;;;;;5061939;28;20098;-71
2022/06/21 01:17:33;;;;;;;2.65;0.55;;;11.10;99.30;;;;;;5072500;28;20056;-71
2022/06/21 01:20:01;;;;;;;0.68;0.40;;;11.10;99.40;;;;;;5055413;28;20033;-71
2022/06/21 01:22:39;;;;;;;1.20;0.68;;;11.10;99.50;;;;;;5064292;28;20096;-71
2022/06/21 01:25:20;;;;;;;0.65;0.35;;;11.10;99.60;;;;;;5063785;28;20120;-71
2022/06/21 01:27:46;;;;;;;0.38;0.30;;;11.10;99.90;;;;;;5071456;28;20047;-70
2022/06/21 01:30:12;;;;;;;0.93;0.60;;;11.10;99.90;;;;;;5046786;28;20493;-71
2022/06/21 01:32:38;;;;;;;2.05;0.70;;;11.10;99.90;;;;;;5067376;28;20028;-71
2022/06/21 01:35:12;;;;;;;0.20;0.20;;;11.10;99.70;;;;;;5064938;28;20036;-71
2022/06/21 01:37:38;;;;;;;0.30;0.20;;;11.10;99.70;;;;;;5074761;28;20557;-71
2022/06/21 01:40:16;;;;;;;0.35;0.25;;;11.00;99.40;;;;;;5048082;28;20056;-71
2022/06/21 01:42:46;;;;;;;0.40;0.30;;;11.00;99.80;;;;;;5065227;28;20050;-71
2022/06/21 01:45:19;;;;;;;0.52;0.22;;;10.90;99.40;;;;;;5061859;28;20059;-71
2022/06/21 01:47:51;;;;;;;0.50;0.40;;;10.90;99.20;;;;;;5063236;28;20040;-71
2022/06/21 01:50:19;;;;;;;0.68;0.28;;;10.80;99.40;;;;;;5063370;28;20197;-71
2022/06/21 01:52:47;;;;;;;2.15;0.50;;;10.80;99.30;;;;;;5045131;28;20635;-71
2022/06/21 01:55:20;;;;;;;1.98;0.50;;;10.70;99.30;;;;;;5061925;28;20621;-71
2022/06/21 01:57:49;;;;;;;0.22;0.20;;;10.60;99.60;;;;;;5062584;28;20036;-70
2022/06/21 02:00:15;;;;;;;0.10;0.10;;;10.60;99.90;;;;;;5078407;28;20079;-71
2022/06/21 02:02:46;;;;;;;0.38;0.17;;;10.60;99.90;;;;;;5067340;28;20054;-71
2022/06/21 02:05:16;;;;;;;0.30;0.30;;;10.50;99.90;;;;;;5068664;28;20045;-71
2022/06/21 02:07:49;;;;;;;0.52;0.10;;;10.40;99.80;;;;;;5064705;28;20068;-71
2022/06/21 02:10:22;;;;;;;0.68;0.30;;;10.40;99.90;;;;;;5061339;28;20040;-71
2022/06/21 02:13:16;;;;;;;0.50;0.30;;;10.40;99.90;;;;;;5046677;28;20032;-71
2022/06/21 02:15:48;;;;;;;0.50;0.30;;;10.40;99.90;;;;;;5065657;28;20049;-70
2022/06/21 02:18:15;;;;;;;0.30;0.20;;;10.40;99.80;;;;;;5067497;28;20425;-70
2022/06/21 02:20:48;;;;;;;0.95;0.60;;;10.40;99.60;;;;;;5064825;28;20062;-70
2022/06/21 02:23:18;;;;;;;0.45;0.45;;;10.40;99.60;;;;;;5062999;28;20052;-71
2022/06/21 02:25:44;;;;;;;0.85;0.47;;;10.40;99.50;;;;;;5065363;28;20044;-71
2022/06/21 02:28:14;;;;;;;3.30;0.55;;;10.40;99.50;;;;;;5055582;28;20056;-71
2022/06/21 02:30:41;;;;;;;1.63;0.50;;;10.30;99.40;;;;;;5063108;28;20070;-71
2022/06/21 02:33:16;;;;;;;2.05;0.52;;;10.40;99.40;;;;;;5070212;28;20048;-71
2022/06/21 02:36:01;;;;;;;0.40;0.30;;;10.40;99.40;;;;;;5066654;28;20043;-71
2022/06/21 02:38:57;;;;;;;1.63;0.47;;;10.30;99.70;;;;;;5066957;28;20044;-71
2022/06/21 02:41:31;;;;;;;0.82;0.57;;;10.30;99.40;;;;;;5044430;28;20048;-71
2022/06/21 02:44:06;;;;;;;0.98;0.60;;;10.30;99.80;;;;;;5065844;28;20044;-71
2022/06/21 02:46:36;;;;;;;0.82;0.40;;;10.30;99.40;;;;;;5065806;28;20976;-70
2022/06/21 02:49:11;;;;;;;3.65;0.60;;;10.20;99.20;;;;;;5057101;28;20975;-70
2022/06/21 02:51:47;;;;;;;0.73;0.47;;;10.20;99.30;;;;;;5064186;28;20491;-70
2022/06/21 02:54:38;;;;;;;0.50;0.30;;;10.20;99.20;;;;;;5066848;28;20290;-70
2022/06/21 02:57:23;;;;;;;0.55;0.35;;;10.20;99.90;;;;;;5062246;28;20050;-71
2022/06/21 02:59:50;;;;;;;2.95;0.90;;;10.20;99.50;;;;;;5082687;28;20105;-70
2022/06/21 03:02:21;;;;;;;0.95;0.45;;;10.20;99.40;;;;;;5058680;28;20075;-71
2022/06/21 03:04:56;;;;;;;2.97;0.65;;;10.20;99.10;;;;;;5072450;28;20112;-70
2022/06/21 03:07:28;;;;;;;0.65;0.30;;;10.10;99.10;;;;;;5047571;28;20153;-71
2022/06/21 03:09:55;;;;;;;2.78;0.60;;;10.10;98.90;;;;;;5066701;28;20143;-71
2022/06/21 03:12:30;;;;;;;1.40;0.50;;;10.10;98.90;;;;;;5068164;28;20040;-71
2022/06/21 03:15:03;;;;;;;0.47;0.40;;;10.00;99.30;;;;;;5060240;28;20386;-70
2022/06/21 03:17:53;;;;;;;1.15;0.47;;;10.10;99.40;;;;;;5059957;28;20044;-70
2022/06/21 03:20:20;;;;;;;2.03;0.80;;;9.90;99.50;;;;;;5070115;28;20032;-70
2022/06/21 03:22:49;;;;;;;1.10;0.52;;;10.00;98.80;;;;;;5065772;28;20093;-70
2022/06/21 03:25:29;;;;;;;1.63;0.80;;;10.00;98.80;;;;;;5067904;28;20028;-70
2022/06/21 03:27:58;;;;;;;1.63;0.80;;;10.00;99.00;;;;;;5063146;28;20037;-71
2022/06/21 03:30:34;;;;;;;1.50;0.75;;;10.00;98.90;;;;;;5063845;28;20028;-70
2022/06/21 03:33:01;;;;;;;2.90;0.80;;;9.90;99.10;;;;;;5056018;28;20033;-70
2022/06/21 03:35:30;;;;;;;1.00;0.68;;;9.90;99.20;;;;;;5063749;28;20055;-71
2022/06/21 03:37:56;;;;;;;1.17;0.70;;;9.90;99.20;;;;;;5063316;28;20182;-70
2022/06/21 03:43:26;;;;;;;0.77;0.50;;;9.90;99.40;;;;;;5055067;28;20045;-70
2022/06/21 03:45:55;;;;;;;1.40;0.73;;;9.90;99.90;;;;;;5064603;28;20482;-71
2022/06/21 03:48:26;;;;;;;1.13;0.57;;;9.90;99.50;;;;;;5060552;28;20044;-71
2022/06/21 03:50:58;;;;;;;1.02;0.63;;;10.00;99.70;;;;;;5060789;28;20039;-71
2022/06/21 03:53:32;;;;;;;0.52;0.40;;;10.00;99.60;;;;;;5066542;28;20091;-70
2022/06/21 03:56:01;;;;;;;4.82;0.60;;;10.00;99.40;;;;;;5064014;28;20039;-70
2022/06/21 03:58:42;;;;;;;0.82;0.52;;;10.00;99.50;;;;;;5060339;28;20044;-71
2022/06/21 04:01:30;;;;;;;0.30;0.30;;;10.00;99.90;;;;;;5062978;28;20698;-70
2022/06/21 04:04:10;;;;;;;0.82;0.40;;;10.00;99.90;;;;;;5060769;28;20063;-70
2022/06/21 04:06:52;;;;;;;0.40;0.30;;;10.10;99.90;;;;;;5056029;28;20047;-71
2022/06/21 04:09:31;;;;;;;1.38;0.60;;;10.20;99.90;;;;;;5050189;28;20549;-70
2022/06/21 04:12:41;;;;;;;1.15;0.47;;;10.20;99.90;;;;;;5049681;28;20052;-71
2022/06/21 04:15:27;;;;;;;1.00;0.50;;;10.30;99.90;;;;;;5034733;28;20048;-70
2022/06/21 04:17:55;;;;;;;;;;;10.40;99.90;;;;;;5065853;28;20052;-70
2022/06/21 04:20:47;;;;;;;1.67;0.80;;;10.50;99.90;;;;;;5035654;28;19920;-70
2022/06/21 04:23:16;;;;;;;2.50;0.75;;;10.60;99.90;;;;;;5030501;28;20051;-70
2022/06/21 04:25:58;;;;;;;1.33;0.60;;;10.70;99.90;;;;;;5063280;28;20128;-70
2022/06/21 04:28:44;;;;;;;0.70;0.50;;;10.80;99.90;;;;;;5065866;28;20044;-70
2022/06/21 04:31:14;;;;;;;1.13;0.60;;;10.80;99.90;;;;;;5065820;28;20713;-70
2022/06/21 04:33:55;;;;;;;0.93;0.50;;;10.90;99.90;;;;;;5064821;28;20650;-70
2022/06/21 04:36:35;;;;;;;1.05;0.55;;;11.00;99.90;;;;;;5055477;28;20041;-70
2022/06/21 04:39:07;;;;;;;1.38;0.63;;;11.00;99.90;;;;;;5059293;28;20044;-71
2022/06/21 04:42:03;;;;;;;1.50;0.63;;;11.10;99.90;;;;;;5078500;28;20520;-71
2022/06/21 04:44:43;;;;;;;0.50;0.43;;;11.20;99.90;;;;;;5064953;28;20040;-70
2022/06/21 04:47:16;;;;;;;1.98;0.88;;;11.30;99.90;;;;;;5063488;28;20066;-70
2022/06/21 04:49:49;;;;;;;1.05;0.70;;;11.30;99.90;;;;;;5066002;28;20040;-70
2022/06/21 04:52:31;;;;;;;1.30;0.73;;;11.40;99.90;;;;;;5068894;28;20091;-71
2022/06/21 04:54:58;;;;;;;4.15;0.75;;;11.50;99.90;;;;;;5063462;28;20036;-71
2022/06/21 04:57:27;;;;;;;5.63;0.88;;;11.50;99.90;;;;;;5062367;28;20356;-70
2022/06/21 05:00:07;;;;;;;0.75;0.50;;;11.60;99.90;;;;;;5056623;28;20123;-70
2022/06/21 05:02:43;;;;;;;1.00;0.70;;;11.70;99.90;;;;;;5068605;28;20124;-71
2022/06/21 05:05:22;;;;;;;1.30;0.77;;;11.80;99.90;;;;;;5052148;28;20040;-71
2022/06/21 05:08:02;;;;;;;3.05;0.90;;;11.80;99.90;;;;;;5058077;28;20799;-71
2022/06/21 05:10:32;;;;;;;1.80;0.93;;;11.80;99.90;;;;;;5064516;28;20044;-70
2022/06/21 05:13:01;;;;;;;1.73;1.00;;;11.80;99.90;;;;;;5040256;28;20550;-70
2022/06/21 05:15:31;;;;;;;5.40;1.00;;;11.90;99.90;;;;;;5058835;28;20041;-71
2022/06/21 05:18:07;;;;;;;1.73;0.85;;;11.90;99.90;;;;;;5053874;28;20098;-71
2022/06/21 05:20:36;;;;;;;1.40;0.65;;;12.00;99.90;;;;;;5048342;28;20386;-71
2022/06/21 05:23:05;;;;;;;3.42;1.20;;;12.00;99.90;;;;;;5063397;28;20081;-71
2022/06/21 05:25:40;;;;;;;2.65;1.30;;;11.90;99.90;;;;;;5064286;28;20492;-71
2022/06/21 05:28:13;;;;;;;;;;;11.90;99.90;;;;;;5042738;28;20481;-70
2022/06/21 05:30:55;;;;;;;3.75;1.52;;;12.00;99.90;;;;;;5067608;28;20396;-70
2022/06/21 05:33:43;;;;;;;4.10;1.50;;;12.00;99.90;;;;;;5062571;28;20028;-71
2022/06/21 05:36:16;;;;;;;2.50;1.25;;;12.00;99.90;;;;;;5052183;28;20044;-70
2022/06/21 05:38:54;;;;;;;2.08;1.10;;;12.00;99.90;;;;;;5077484;28;20035;-71
2022/06/21 05:41:41;;;;;;;2.17;1.20;;;12.10;99.90;;;;;;5059750;28;20664;-70
2022/06/21 05:44:30;;;;;;;2.13;1.10;;;12.20;99.90;;;;;;5072288;28;20048;-71
2022/06/21 05:47:15;;;;;;;4.82;1.30;;;12.20;99.90;;;;;;5053476;28;20073;-71
2022/06/21 05:49:41;;;;;;;3.72;1.65;;;12.30;99.90;;;;;;5058979;28;20081;-71
2022/06/21 05:52:12;;;;;;;3.78;1.50;;;12.40;99.90;;;;;;5049265;28;20052;-71
2022/06/21 05:54:51;;;;;;;4.57;1.30;;;12.50;99.90;;;;;;5057421;28;20044;-71
2022/06/21 05:57:21;;;;;;;1.40;0.95;;;12.60;99.90;;;;;;5043787;28;20082;-71
2022/06/21 05:59:47;;;;;;;3.10;1.00;;;12.60;99.90;;;;;;5070084;28;20047;-71
2022/06/21 06:02:24;;;;;;;2.65;1.40;;;12.60;99.90;;;;;;5053776;28;20375;-70
2022/06/21 06:04:57;;;;;;;2.03;0.98;;;12.70;99.90;;;;;;5065667;28;20041;-70
2022/06/21 06:07:33;;;;;;;1.90;1.10;;;12.90;99.90;;;;;;5055499;28;20049;-71
2022/06/21 06:10:00;;;;;;;1.50;0.90;;;13.00;99.90;;;;;;5063287;28;20052;-70
2022/06/21 06:12:33;;;;;;;2.65;1.15;;;13.10;99.90;;;;;;5063586;28;20475;-71
2022/06/21 06:15:11;;;;;;;2.80;1.30;;;13.20;99.90;;;;;;5055082;28;20115;-71
2022/06/21 06:18:04;;;;;;;3.05;1.10;;;13.40;99.90;;;;;;5046299;28;20053;-70
2022/06/21 06:20:41;;;;;;;4.55;1.10;;;13.50;99.90;;;;;;5063735;28;20111;-71
2022/06/21 06:23:33;;;;;;;1.92;1.27;;;13.50;99.90;;;;;;5055712;28;20040;-70
2022/06/21 06:26:12;;;;;;;1.02;0.70;;;13.50;99.90;;;;;;5040931;28;20048;-73
2022/06/21 06:29:00;;;;;;;1.85;0.80;;;13.50;99.90;;;;;;5055970;28;20075;-70
2022/06/21 06:31:47;;;;;;;1.23;0.70;;;13.60;99.90;;;;;;5055700;28;20486;-70
2022/06/21 06:34:17;;;;;;;1.17;0.60;;;13.70;99.90;;;;;;5037363;28;20047;-70
2022/06/21 06:36:47;;;;;;;3.20;0.70;;;14.60;99.90;;;;;;5048999;28;20321;-70
2022/06/21 06:39:28;;;;;;;0.70;0.32;;;16.00;99.90;;;;;;5044724;28;21956;-70
2022/06/21 06:42:16;;;;;;;1.40;0.52;;;17.40;96.60;;;;;;5043525;28;20163;-70
2022/06/21 06:44:55;;;;;;;1.05;0.50;;;18.50;93.80;;;;;;5047887;28;20390;-70
2022/06/21 06:47:28;;;;;;;1.75;0.73;;;19.60;91.20;;;;;;5056360;28;20093;-70
2022/06/21 06:50:00;;;;;;;1.75;0.88;;;20.20;91.40;;;;;;5049750;28;20119;-70
2022/06/21 06:52:50;;;;;;;2.17;0.98;;;20.60;90.50;;;;;;5055743;28;20033;-70
2022/06/21 06:55:23;;;;;;;1.88;0.80;;;20.30;87.20;;;;;;5055056;28;20028;-70
2022/06/21 06:58:06;;;;;;;1.25;0.50;;;19.70;93.20;;;;;;5040570;28;20103;-70
2022/06/21 07:00:40;;;;;;;1.33;0.50;;;19.10;94.00;;;;;;5052105;28;20037;-70
2022/06/21 07:03:17;;;;;;;0.98;0.45;;;18.40;95.10;;;;;;5048781;28;20033;-70
2022/06/21 07:06:18;;;;;;;1.02;0.60;;;17.80;96.50;;;;;;5060239;28;20089;-70
2022/06/21 07:08:57;;;;;;;0.60;0.50;;;17.40;96.50;;;;;;5032840;28;20086;-70
2022/06/21 07:11:45;;;;;;;1.35;0.70;;;17.10;98.00;;;;;;5052995;28;20047;-71
2022/06/21 07:14:17;;;;;;;0.65;0.40;;;16.80;98.30;;;;;;5064467;28;20076;-70
2022/06/21 07:16:43;;;;;;;1.00;0.60;;;16.50;99.00;;;;;;5053320;28;20033;-70
2022/06/21 07:19:10;;;;;;;1.25;0.73;;;16.30;99.90;;;;;;5056395;28;20495;-70
2022/06/21 07:21:37;;;;;;;1.23;0.60;;;16.20;99.90;;;;;;5059268;28;20062;-71
2022/06/21 07:24:08;;;;;;;1.92;0.70;;;16.10;99.90;;;;;;5054199;28;20043;-70
2022/06/21 07:26:47;;;;;;;2.63;0.80;;;16.00;99.90;;;;;;5050136;28;20068;-70
2022/06/21 07:29:33;;;;;;;0.70;0.60;;;15.90;99.90;;;;;;5053114;28;20032;-70
2022/06/21 07:32:08;;;;;;;1.00;0.80;;;15.80;99.70;;;;;;5053258;28;20056;-70
2022/06/21 07:35:08;;;;;;;1.53;0.60;;;15.70;99.80;;;;;;5060237;28;20501;-70
2022/06/21 07:37:41;;;;;;;0.82;0.52;;;15.70;99.90;;;;;;5050601;28;20043;-73
2022/06/21 07:40:10;;;;;;;1.33;0.50;;;15.60;99.90;;;;;;5058927;28;20108;-70
2022/06/21 07:43:06;;;;;;;1.17;0.50;;;15.60;99.90;;;;;;5037728;28;20041;-70
2022/06/21 07:45:34;;;;;;;1.92;0.80;;;15.60;99.90;;;;;;5051469;28;20044;-70
2022/06/21 07:48:06;;;;;;;4.07;1.00;;;15.50;99.90;;;;;;5056138;28;20072;-70
2022/06/21 07:50:37;;;;;;;1.02;0.50;;;15.60;99.90;;;;;;5040520;28;20120;-70
2022/06/21 07:53:43;;;;;;;1.48;0.80;;;15.50;99.90;;;;;;5063813;28;20043;-70
2022/06/21 07:56:44;;;;;;;1.30;0.70;;;15.60;99.90;;;;;;5053956;28;20053;-70
2022/06/21 07:59:15;;;;;;;1.38;0.80;;;15.70;99.90;;;;;;5062267;28;20130;-70
2022/06/21 08:07:26;;;;;;;0.20;0.20;;;15.60;99.50;;;;;;5059654;28;20044;-70
2022/06/21 08:10:00;;;;;;;1.23;0.50;;;15.70;99.80;;;;;;5065522;28;20440;-70
2022/06/21 08:12:26;;;;;;;0.98;0.60;;;15.70;99.30;;;;;;5060355;28;20044;-70
2022/06/21 08:14:52;;;;;;;1.05;0.70;;;15.70;99.70;;;;;;5052614;28;20099;-70
2022/06/21 08:17:43;;;;;;;1.50;0.70;;;15.80;99.70;;;;;;5059330;28;20486;-70
2022/06/21 08:20:24;;;;;;;1.13;0.65;;;15.80;99.20;;;;;;5039177;28;20048;-69
2022/06/21 08:23:08;;;;;;;7.78;1.10;;;15.80;98.60;;;;;;5062749;28;20040;-70
2022/06/21 08:25:38;;;;;;;1.33;0.60;;;15.80;98.40;;;;;;5055330;28;20555;-71
2022/06/21 08:28:19;;;;;;;3.13;0.80;;;15.80;98.70;;;;;;5055578;28;20064;-70
2022/06/21 08:30:59;;;;;;;2.53;0.60;;;15.80;98.30;;;;;;5042363;28;20128;-70
2022/06/21 08:33:53;;;;;;;2.72;0.55;;;15.70;98.10;;;;;;5056519;28;20072;-70
2022/06/21 08:36:42;;;;;;;1.40;0.60;;;15.70;97.40;;;;;;5039200;28;20049;-70
2022/06/21 08:39:25;;;;;;;0.70;0.40;;;15.70;97.50;;;;;;5042576;28;20125;-70
2022/06/21 08:42:24;;;;;;;1.45;0.60;;;15.70;97.40;;;;;;5036554;28;20088;-70
2022/06/21 08:45:41;;;;;;;1.65;0.88;;;15.70;98.10;;;;;;5064181;28;20398;-70
2022/06/21 08:48:57;;;;;;;1.13;0.50;;;15.80;98.70;;;;;;5053429;28;20135;-70
2022/06/21 08:51:45;;;;;;;2.10;0.70;;;15.80;98.80;;;;;;5056877;28;20124;-70
2022/06/21 08:54:36;;;;;;;1.25;0.60;;;15.90;98.20;;;;;;5057864;28;20052;-70
2022/06/21 08:57:05;;;;;;;1.13;0.70;;;15.90;97.60;;;;;;5054478;28;20093;-70
2022/06/21 08:59:43;;;;;;;3.05;0.65;;;16.00;97.50;;;;;;5054327;28;20045;-70
2022/06/21 09:02:29;;;;;;;1.30;0.70;;;16.00;97.40;;;;;;5041904;28;20106;-71
2022/06/21 09:05:10;;;;;;;1.15;0.60;;;15.90;96.50;;;;;;5056704;28;20037;-71
2022/06/21 09:07:38;;;;;;;1.30;0.63;;;15.90;97.10;;;;;;5054645;28;20053;-71
2022/06/21 09:10:13;;;;;;;0.98;0.50;;;15.90;97.30;;;;;;5052610;28;20036;-71
2022/06/21 09:13:13;;;;;;;1.40;0.65;;;16.00;97.70;;;;;;5049275;28;20131;-70
2022/06/21 09:16:01;;;;;;;2.42;0.80;;;16.00;97.30;;;;;;5058054;28;20047;-70
2022/06/21 09:18:46;;;;;;;0.88;0.50;;;16.10;96.40;;;;;;5048934;28;20049;-70
2022/06/21 09:21:40;;;;;;;1.45;0.70;;;16.10;96.60;;;;;;5057181;28;20044;-70
2022/06/21 09:24:22;;;;;;;1.08;0.68;;;16.20;96.40;;;;;;5053644;28;20320;-70
2022/06/21 09:26:57;;;;;;;1.35;0.50;;;16.20;96.70;;;;;;5061380;28;20647;-70
2022/06/21 09:29:30;;;;;;;0.70;0.50;;;16.30;96.50;;;;;;5048406;28;20045;-70
2022/06/21 09:32:21;;;;;;;1.30;0.73;;;16.30;96.50;;;;;;5051267;28;20055;-71
2022/06/21 09:35:03;;;;;;;1.92;0.93;;;16.30;97.40;;;;;;5064873;28;20037;-71
2022/06/21 09:38:00;;;;;;;1.85;0.90;;;16.40;96.80;;;;;;5061875;28;20036;-70
2022/06/21 09:40:31;;;;;;;1.10;0.70;;;16.50;96.40;;;;;;5059468;28;20047;-71
2022/06/21 09:43:24;;;;;;;1.52;0.57;;;16.40;96.30;;;;;;5052122;28;20076;-70
2022/06/21 09:46:08;;;;;;;0.65;0.40;;;16.40;95.60;;;;;;5068420;28;20032;-71
2022/06/21 09:49:00;;;;;;;1.13;0.63;;;16.50;96.30;;;;;;5057237;28;20068;-70
2022/06/21 09:51:42;;;;;;;2.50;0.65;;;16.50;96.50;;;;;;5054348;28;20486;-70
2022/06/21 09:54:58;;;;;;;0.98;0.47;;;16.60;96.40;;;;;;5055054;28;20036;-71
2022/06/21 09:57:27;;;;;;;3.95;0.77;;;16.70;96.30;;;;;;5034052;28;20152;-70
2022/06/21 10:00:02;;;;;;;1.10;0.82;;;16.70;96.60;;;;;;5056459;28;20041;-70
2022/06/21 10:02:56;;;;;;;1.52;0.73;;;16.80;96.60;;;;;;5059327;28;20125;-71
2022/06/21 10:05:53;;;;;;;2.20;0.73;;;16.90;97.70;;;;;;5044465;28;20439;-71
2022/06/21 10:08:32;;;;;;;4.20;1.00;;;17.00;97.10;;;;;;5059933;28;20060;-70
2022/06/21 10:11:19;;;;;;;4.18;0.70;;;17.00;96.20;;;;;;5036395;28;21074;-70
2022/06/21 10:14:18;;;;;;;1.15;0.50;;;17.00;96.30;;;;;;5045846;28;20548;-70
2022/06/21 10:16:56;;;;;;;0.70;0.50;;;17.10;95.50;;;;;;5057332;28;20048;-71
2022/06/21 10:19:45;;;;;;;0.70;0.43;;;17.10;95.90;;;;;;5061826;28;20087;-71
2022/06/21 10:22:31;;;;;;;0.90;0.45;;;17.00;95.30;;;;;;5051910;28;20522;-71
2022/06/21 10:25:14;;;;;;;1.15;0.57;;;17.00;94.70;;;;;;5058469;28;20048;-70
2022/06/21 10:27:53;;;;;;;2.28;0.57;;;16.90;95.70;;;;;;5063443;28;20036;-71
2022/06/21 10:30:30;;;;;;;1.15;0.52;;;17.00;96.30;;;;;;5041368;28;20032;-70
2022/06/21 10:33:23;;;;;;;0.80;0.40;;;17.00;95.90;;;;;;5057861;28;20041;-70
2022/06/21 10:36:28;;;;;;;0.60;0.40;;;16.90;94.40;;;;;;5061514;28;20486;-70
2022/06/21 10:39:02;;;;;;;0.73;0.40;;;16.90;94.30;;;;;;5066585;28;20398;-71
2022/06/21 10:41:36;;;;;;;1.48;0.70;;;16.90;95.00;;;;;;5051481;28;20246;-70
2022/06/21 10:44:07;;;;;;;1.85;0.65;;;16.90;93.90;;;;;;5056631;28;20094;-70
2022/06/21 10:46:38;;;;;;;1.27;0.70;;;16.90;94.30;;;;;;5055104;28;20051;-71
2022/06/21 10:49:35;;;;;;;1.00;0.65;;;17.00;95.10;;;;;;5058415;28;20041;-71
2022/06/21 10:52:24;;;;;;;1.08;0.60;;;17.10;94.90;;;;;;5059024;28;20159;-71
2022/06/21 10:55:05;;;;;;;0.55;0.43;;;17.20;94.40;;;;;;5053690;28;22081;-70
2022/06/21 10:58:00;;;;;;;1.05;0.70;;;17.30;93.80;;;;;;5037674;28;20033;-70
2022/06/21 11:04:02;;;;;;;1.02;0.43;;;17.30;93.60;;;;;;5055967;28;20060;-71
2022/06/21 11:06:44;;;;;;;1.92;0.43;;;17.40;93.70;;;;;;5057109;28;20032;-70
2022/06/21 11:09:19;;;;;;;1.20;0.60;;;17.40;94.00;;;;;;5053224;28;20453;-70
2022/06/21 11:11:51;;;;;;;;;;;17.50;93.60;;;;;;5061879;28;20512;-70
2022/06/21 11:14:17;;;;;;;0.80;0.50;;;17.60;89.50;;;;;;5058870;28;19920;-70
2022/06/21 11:17:11;;;;;;;0.73;0.50;;;17.60;92.60;;;;;;5049369;28;20056;-70
2022/06/21 11:19:48;;;;;;;2.15;0.47;;;17.70;86.90;;;;;;5059366;28;20045;-70
2022/06/21 11:22:27;;;;;;;0.73;0.40;;;17.70;90.30;;;;;;5044054;28;20097;-70
2022/06/21 11:25:20;;;;;;;1.30;0.50;;;17.70;88.80;;;;;;5052948;28;20045;-71
2022/06/21 11:28:05;;;;;;;1.38;0.65;;;17.70;87.10;;;;;;5061866;28;20041;-71
2022/06/21 11:30:41;;;;;;;0.68;0.40;;;17.80;88.60;;;;;;5042780;28;20082;-70
2022/06/21 11:33:53;;;;;;;2.92;0.63;;;17.80;89.40;;;;;;5053051;28;20036;-71
2022/06/21 11:36:38;;;;;;;1.90;0.30;;;17.80;90.20;;;;;;5059365;28;20045;-71
2022/06/21 11:39:22;;;;;;;0.70;0.50;;;17.90;89.80;;;;;;5053695;28;20040;-70
2022/06/21 11:42:05;;;;;;;0.90;0.50;;;17.90;90.20;;;;;;5058116;28;20125;-71
2022/06/21 11:44:59;;;;;;;0.73;0.40;;;18.00;90.20;;;;;;5053424;28;20048;-71
2022/06/21 11:47:49;;;;;;;1.00;0.50;;;18.00;84.60;;;;;;5054775;28;20499;-70
2022/06/21 11:50:21;;;;;;;0.85;0.50;;;18.10;86.40;;;;;;5073045;28;20401;-72
2022/06/21 11:53:13;;;;;;;1.00;0.40;;;18.10;87.00;;;;;;5056611;28;20045;-69
2022/06/21 11:56:01;;;;;;;1.15;0.50;;;18.10;82.10;;;;;;5048454;28;20040;-74
2022/06/21 11:58:56;;;;;;;0.73;0.50;;;18.10;84.80;;;;;;5049397;28;20040;-71
2022/06/21 12:01:51;;;;;;;0.55;0.35;;;18.20;86.80;;;;;;5051535;28;20040;-70
2022/06/21 12:04:48;;;;;;;1.13;0.60;;;18.10;82.00;;;;;;5035280;28;20422;-70
2022/06/21 12:07:17;;;;;;;0.35;0.30;;;18.10;85.00;;;;;;5051848;28;20481;-70
2022/06/21 12:10:18;;;;;;;1.58;0.73;;;18.20;88.20;;;;;;5056667;28;20268;-70
2022/06/21 12:12:53;;;;;;;1.23;0.40;;;18.20;83.40;;;;;;5055351;28;20158;-70
2022/06/21 12:15:45;;;;;;;1.00;0.40;;;18.30;83.70;;;;;;5055471;28;20044;-70
2022/06/21 12:18:24;;;;;;;0.95;0.52;;;18.30;78.30;;;;;;5049879;28;20518;-70
2022/06/21 12:20:55;;;;;;;2.28;0.52;;;18.40;82.50;;;;;;5051934;28;20111;-70
2022/06/21 12:23:36;;;;;;;0.68;0.30;;;18.30;85.90;;;;;;5049531;28;20041;-71
2022/06/21 12:26:04;;;;;;;1.88;0.50;;;18.40;85.10;;;;;;5056179;28;20037;-70
2022/06/21 12:28:33;;;;;;;1.40;0.63;;;18.40;83.70;;;;;;5048634;28;20460;-70
2022/06/21 12:31:03;;;;;;;1.23;0.88;;;18.40;83.40;;;;;;5054326;28;20080;-70
2022/06/21 12:33:33;;;;;;;0.93;0.35;;;18.40;82.70;;;;;;5053231;28;20052;-71
2022/06/21 12:36:03;;;;;;;0.40;0.30;;;18.40;83.50;;;;;;5045839;28;20087;-71
2022/06/21 12:38:46;;;;;;;0.40;0.30;;;18.50;84.20;;;;;;5037625;28;20036;-70
2022/06/21 12:41:15;;;;;;;0.47;0.30;;;18.60;81.30;;;;;;5052556;28;20044;-70
2022/06/21 12:44:00;;;;;;;0.95;0.40;;;18.60;83.70;;;;;;5051431;28;20048;-68
2022/06/21 12:47:04;;;;;;;0.82;0.68;;;18.60;81.10;;;;;;5054894;28;20484;-71
2022/06/21 12:49:59;;;;;;;0.50;0.30;;;18.60;82.00;;;;;;5060610;28;20110;-71
2022/06/21 12:52:34;;;;;;;0.35;0.25;;;18.50;82.00;;;;;;5064588;28;20594;-71
2022/06/21 12:55:16;;;;;;;1.52;0.43;;;18.50;81.80;;;;;;5062403;28;20037;-71
2022/06/21 12:58:07;;;;;;;0.20;0.20;;;18.50;81.20;;;;;;5066461;28;20033;-71
2022/06/21 13:00:44;;;;;;;0.30;0.30;;;18.50;78.30;;;;;;5051798;28;20217;-71
2022/06/21 13:03:40;;;;;;;0.38;0.30;;;18.50;82.40;;;;;;5046006;28;20098;-71
2022/06/21 13:06:27;;;;;;;;;;;18.60;78.30;;;;;;5050771;28;20545;-71
2022/06/21 13:09:04;;;;;;;1.25;0.47;;;18.60;72.90;;;;;;5068932;28;19924;-71
2022/06/21 13:11:46;;;;;;;2.10;0.38;;;18.70;78.90;;;;;;5052512;28;20128;-71
2022/06/21 13:14:44;;;;;;;0.90;0.45;;;18.70;79.60;;;;;;5034310;28;20040;-71
2022/06/21 13:17:21;;;;;;;0.85;0.38;;;18.80;79.70;;;;;;5067469;28;20450;-71
2022/06/21 13:20:23;;;;;;;0.98;0.50;;;18.80;78.60;;;;;;5053133;28;20076;-71
2022/06/21 13:23:18;;;;;;;0.82;0.30;;;18.80;78.30;;;;;;5049053;28;20044;-71
2022/06/21 13:25:48;;;;;;;4.53;0.75;;;18.90;76.60;;;;;;5064701;28;20367;-71
2022/06/21 13:28:39;;;;;;;1.00;0.50;;;19.00;80.20;;;;;;5053614;28;20052;-71
2022/06/21 13:31:18;;;;;;;0.57;0.30;;;19.10;75.60;;;;;;5065589;28;20497;-71
2022/06/21 13:34:05;;;;;;;1.65;0.40;;;19.10;78.40;;;;;;5058452;28;20044;-71
2022/06/21 13:36:40;;;;;;;0.60;0.40;;;19.10;75.20;;;;;;5051197;28;20047;-71
2022/06/21 13:39:32;;;;;;;1.43;0.40;;;19.10;77.60;;;;;;5050044;28;20037;-71
2022/06/21 13:44:52;;;;;;;1.20;0.35;;;19.30;77.90;;;;;;5048945;28;20072;-71
2022/06/21 13:47:38;;;;;;;1.25;0.50;;;19.30;77.20;;;;;;5052717;28;20045;-71
2022/06/21 13:50:04;;;;;;;0.75;0.28;;;19.20;74.60;;;;;;5049768;28;20068;-71
2022/06/21 13:52:51;;;;;;;1.13;0.40;;;19.20;77.60;;;;;;5049039;28;20497;-71
2022/06/21 13:55:40;;;;;;;0.80;0.45;;;19.30;76.40;;;;;;5069504;28;20049;-71
2022/06/21 13:58:38;;;;;;;0.55;0.38;;;19.30;76.50;;;;;;5049495;28;20383;-71
2022/06/21 14:01:23;;;;;;;0.70;0.40;;;19.40;72.20;;;;;;5060083;28;20055;-71
2022/06/21 14:04:13;;;;;;;0.60;0.35;;;19.40;76.40;;;;;;5053052;28;20358;-71